Terminal Aerodrome Forecast
Issued by NWS Wilmington, OH

Current Version | Previous Version | Graphics & Text | Print | Product List | Glossary On
Versions: 1 2 3 4 5 6 7 8 9 10 11 12 13 14 15 16 17 18 19 20 21 22
000
FTUS41 KILN 251130
TAFCVG
TAF
KCVG 251130Z 2512/2618 29006KT P6SM SKC
     FM251600 29009KT P6SM SCT060
     FM260000 26003KT P6SM FEW060
     FM261400 34006KT P6SM SCT060=

USA.gov is the U.S. government's official web portal to all federal, state and local government web resources and services.